createdAt,value
2023-03-30T00:01:00.025Z,1.9
2023-03-30T00:02:16.511Z,1.9
2023-03-30T00:03:32.981Z,1.8
2023-03-30T00:06:05.958Z,2
2023-03-30T00:11:11.144Z,1.8
2023-03-30T00:12:27.610Z,2.1
2023-03-30T00:15:00.572Z,1.8
2023-03-30T00:16:17.056Z,1.8
2023-03-30T00:20:06.505Z,1.9
2023-03-30T00:21:22.968Z,1.9
2023-03-30T00:22:39.498Z,1.9
2023-03-30T00:23:55.940Z,1.8
2023-03-30T00:25:11.692Z,2.2
2023-03-30T00:26:28.207Z,2.1
2023-03-30T00:29:01.127Z,2.2
2023-03-30T00:30:17.606Z,2.1
2023-03-30T00:32:50.608Z,1.8
2023-03-30T00:35:22.848Z,2.1
2023-03-30T00:37:55.098Z,2
2023-03-30T00:39:10.908Z,2.1
2023-03-30T00:41:43.863Z,1.8
2023-03-30T00:43:00.337Z,2.1
2023-03-30T00:44:16.822Z,2.1
2023-03-30T00:46:49.774Z,2.1
2023-03-30T00:48:06.265Z,1.8
2023-03-30T00:50:39.258Z,1.4
2023-03-30T00:51:55.693Z,1.8
2023-03-30T00:53:12.182Z,2.1
2023-03-30T00:57:01.609Z,1.8
2023-03-30T00:58:17.365Z,2
2023-03-30T01:02:06.797Z,1.9
2023-03-30T01:04:39.765Z,1.8
2023-03-30T01:07:12.734Z,2
2023-03-30T01:09:45.689Z,2
2023-03-30T01:11:02.189Z,2
2023-03-30T01:16:08.102Z,1.9
2023-03-30T01:18:40.318Z,1.9
2023-03-30T01:19:56.798Z,1.9
2023-03-30T01:21:13.316Z,1.9
2023-03-30T01:25:02.722Z,1.9
2023-03-30T01:27:35.685Z,2
2023-03-30T01:28:52.196Z,1.7
2023-03-30T01:30:08.637Z,2
2023-03-30T01:32:41.597Z,1.9
2023-03-30T01:33:57.357Z,1.8
2023-03-30T01:37:46.805Z,2.1
2023-03-30T01:39:03.279Z,2
2023-03-30T01:41:36.000Z,1.9
2023-03-30T01:42:52.704Z,1.8
2023-03-30T01:46:42.146Z,2
2023-03-30T01:47:58.642Z,2.2
2023-03-30T01:50:31.606Z,2
2023-03-30T01:53:03.826Z,2.1
2023-03-30T01:56:53.262Z,1.7
2023-03-30T01:59:26.229Z,2.1
2023-03-30T02:00:42.714Z,1.9
2023-03-30T02:04:32.147Z,2.1
2023-03-30T02:05:48.627Z,2
2023-03-30T02:07:05.094Z,2.2
2023-03-30T02:10:53.803Z,2
2023-03-30T02:12:10.291Z,2.1
2023-03-30T02:13:26.762Z,2.1
2023-03-30T02:15:59.740Z,2
2023-03-30T02:17:16.213Z,2.2
2023-03-30T02:18:32.694Z,2.2
2023-03-30T02:19:49.168Z,1.9
2023-03-30T02:22:22.164Z,2.1
2023-03-30T02:23:38.614Z,2.1
2023-03-30T02:24:54.366Z,1.8
2023-03-30T02:27:27.317Z,2
2023-03-30T02:28:43.796Z,1.9
2023-03-30T02:30:00.277Z,2
2023-03-30T02:32:33.239Z,2
2023-03-30T02:33:49.715Z,2.1
2023-03-30T02:36:22.681Z,2.2
2023-03-30T02:37:39.153Z,1.9
2023-03-30T02:38:55.644Z,1.7
2023-03-30T02:41:28.607Z,1.9
2023-03-30T02:42:44.338Z,2.1
2023-03-30T02:44:00.861Z,2.1
2023-03-30T02:45:17.299Z,1.9
2023-03-30T02:46:33.777Z,2.3
2023-03-30T02:47:50.272Z,2.3
2023-03-30T02:49:06.745Z,1.9
2023-03-30T02:50:23.221Z,2.1
2023-03-30T02:51:39.711Z,2.2
2023-03-30T02:52:56.000Z,2.1
2023-03-30T02:56:45.639Z,2.1
2023-03-30T02:58:02.114Z,2
2023-03-30T02:59:17.857Z,1.9
2023-03-30T03:01:50.821Z,1.9
2023-03-30T03:04:23.785Z,1.9
2023-03-30T03:05:40.250Z,2.1
2023-03-30T03:09:29.689Z,2.1
2023-03-30T03:10:46.166Z,1.9
2023-03-30T03:12:02.657Z,2
2023-03-30T03:13:19.146Z,2.2
2023-03-30T03:14:35.619Z,1.8
2023-03-30T03:15:51.357Z,2
2023-03-30T03:17:07.841Z,2.2
2023-03-30T03:18:24.331Z,1.9
2023-03-30T03:19:40.813Z,1.8
2023-03-30T03:20:57.295Z,2.3
2023-03-30T03:22:13.762Z,2.2
2023-03-30T03:23:30.242Z,2.2
2023-03-30T03:24:46.729Z,2
2023-03-30T03:27:19.679Z,2
2023-03-30T03:28:36.173Z,1.9
2023-03-30T03:29:52.646Z,2
2023-03-30T03:32:25.602Z,2
2023-03-30T03:33:41.344Z,2
2023-03-30T03:36:14.314Z,2
2023-03-30T03:37:30.804Z,2
2023-03-30T03:40:03.764Z,2.2
2023-03-30T03:41:20.237Z,2.2
2023-03-30T03:42:36.711Z,2.3
2023-03-30T03:43:53.189Z,2.1
2023-03-30T03:45:09.672Z,2.3
2023-03-30T03:46:26.158Z,2.2
2023-03-30T03:47:42.639Z,1.9
2023-03-30T03:48:59.112Z,1.9
2023-03-30T03:50:14.872Z,2
2023-03-30T03:51:31.350Z,2.1
2023-03-30T03:52:47.823Z,2.1
2023-03-30T03:54:04.341Z,2.1
2023-03-30T03:55:20.777Z,2
2023-03-30T03:56:37.268Z,1.9
2023-03-30T03:57:53.741Z,2.2
2023-03-30T03:59:10.230Z,2
2023-03-30T04:00:26.706Z,2
2023-03-30T04:01:43.184Z,2
2023-03-30T04:02:59.006Z,2
2023-03-30T04:04:14.766Z,1.8
2023-03-30T04:05:31.254Z,2.2
2023-03-30T04:06:47.729Z,1.9
2023-03-30T04:08:04.211Z,1.9
2023-03-30T04:10:37.167Z,2.1
2023-03-30T04:13:10.128Z,2.4
2023-03-30T04:14:26.614Z,2.2
2023-03-30T04:15:43.087Z,2
2023-03-30T04:18:16.048Z,2
2023-03-30T04:19:32.519Z,1.9
2023-03-30T04:22:04.830Z,2
2023-03-30T04:23:20.658Z,2
2023-03-30T04:24:36.409Z,2.1
2023-03-30T04:25:52.891Z,1.6
2023-03-30T04:27:09.372Z,1.9
2023-03-30T04:28:25.857Z,2.1
2023-03-30T04:29:42.331Z,2.1
2023-03-30T04:30:58.814Z,1.9
2023-03-30T04:32:15.291Z,2.3
2023-03-30T04:33:31.773Z,1.8
2023-03-30T04:36:04.738Z,1.8
2023-03-30T04:37:21.213Z,2.4
2023-03-30T04:38:37.697Z,1.8
2023-03-30T04:39:54.180Z,2
2023-03-30T04:41:09.918Z,2
2023-03-30T04:42:26.395Z,1.7
2023-03-30T04:44:59.354Z,1.9
2023-03-30T04:46:15.841Z,2
2023-03-30T04:50:05.284Z,1.9
2023-03-30T04:51:21.763Z,2.1
2023-03-30T04:53:54.712Z,2.2
2023-03-30T04:56:26.995Z,1.9
2023-03-30T04:57:42.776Z,2.1
2023-03-30T04:58:59.251Z,2.2
2023-03-30T05:00:15.737Z,2.4
2023-03-30T05:01:32.228Z,2
2023-03-30T05:02:48.690Z,2
2023-03-30T05:04:05.187Z,2.1
2023-03-30T05:05:21.660Z,2.1
2023-03-30T05:07:54.624Z,2.2
2023-03-30T05:09:11.094Z,2
2023-03-30T05:10:27.576Z,2.1
2023-03-30T05:11:44.059Z,2
2023-03-30T05:13:00.547Z,2.1
2023-03-30T05:14:16.297Z,1.9
2023-03-30T05:15:32.761Z,2
2023-03-30T05:16:49.245Z,1.8
2023-03-30T05:18:05.725Z,1.9
2023-03-30T05:19:22.248Z,2.2
2023-03-30T05:20:38.694Z,1.7
2023-03-30T05:21:55.167Z,1.8
2023-03-30T05:23:10.988Z,2.2
2023-03-30T05:24:26.746Z,2.1
2023-03-30T05:25:43.229Z,1.9
2023-03-30T05:28:16.178Z,2.1
2023-03-30T05:29:32.657Z,2.1
2023-03-30T05:30:49.152Z,2.1
2023-03-30T05:32:05.635Z,2.1
2023-03-30T05:33:22.102Z,2.4
2023-03-30T05:35:55.058Z,2.5
2023-03-30T05:37:11.538Z,2.6
2023-03-30T05:38:28.017Z,2.7
2023-03-30T05:39:43.867Z,2.4
2023-03-30T05:40:59.605Z,2.2
2023-03-30T05:42:16.088Z,2.1
2023-03-30T05:44:49.038Z,2.3
2023-03-30T05:46:05.519Z,2
2023-03-30T05:47:22.049Z,2.2
2023-03-30T05:48:38.493Z,2.3
2023-03-30T05:49:54.962Z,2.4
2023-03-30T05:51:11.442Z,2.4
2023-03-30T05:53:44.398Z,2.7
2023-03-30T05:55:00.891Z,1.9
2023-03-30T05:57:33.844Z,2.2
2023-03-30T05:58:50.321Z,3.1
2023-03-30T06:00:06.076Z,2.9
2023-03-30T06:02:39.035Z,2.5
2023-03-30T06:03:55.523Z,3
2023-03-30T06:07:44.951Z,3
2023-03-30T06:09:01.424Z,3
2023-03-30T06:10:17.908Z,2.6
2023-03-30T06:11:34.404Z,2.3
2023-03-30T06:12:50.875Z,2.6
2023-03-30T06:14:07.345Z,2.7
2023-03-30T06:15:23.827Z,2.9
2023-03-30T06:16:39.593Z,2.8
2023-03-30T06:17:56.056Z,2.6
2023-03-30T06:19:12.537Z,2.7
2023-03-30T06:20:29.014Z,2.5
2023-03-30T06:21:45.497Z,2.4
2023-03-30T06:23:01.981Z,2.3
2023-03-30T06:24:18.464Z,2.8
2023-03-30T06:25:34.954Z,2.8
2023-03-30T06:26:51.416Z,2.8
2023-03-30T06:28:07.895Z,2.5
2023-03-30T06:30:40.859Z,6.7
2023-03-30T06:31:57.335Z,2.9
2023-03-30T06:33:13.095Z,3
2023-03-30T06:34:28.934Z,2.7
2023-03-30T06:35:44.672Z,2.6
2023-03-30T06:37:01.142Z,2.6
2023-03-30T06:38:17.636Z,2.5
2023-03-30T06:39:34.108Z,2.9
2023-03-30T06:40:50.587Z,2.5
2023-03-30T06:42:07.063Z,2.5
2023-03-30T06:44:40.023Z,2.7
2023-03-30T06:45:56.506Z,2.9
2023-03-30T06:47:12.986Z,3
2023-03-30T06:48:29.480Z,2.9
2023-03-30T06:49:45.960Z,2.9
2023-03-30T06:51:02.425Z,3.1
2023-03-30T06:53:34.667Z,4.1
2023-03-30T06:54:50.499Z,3.5
2023-03-30T06:57:22.728Z,3.8
2023-03-30T06:58:39.192Z,3.2
2023-03-30T06:59:55.673Z,7.1
2023-03-30T07:02:28.633Z,3.8
2023-03-30T07:03:45.122Z,3.7
2023-03-30T07:06:18.124Z,4.6
2023-03-30T07:07:34.562Z,4.6
2023-03-30T07:08:51.048Z,4.1
2023-03-30T07:11:23.998Z,4.3
2023-03-30T07:12:39.758Z,3.6
2023-03-30T07:13:56.229Z,4.1
2023-03-30T07:25:24.537Z,4.5
2023-03-30T07:30:30.460Z,4
2023-03-30T07:31:46.211Z,4.1
2023-03-30T07:35:35.664Z,4.4
2023-03-30T07:36:52.138Z,3.6
2023-03-30T07:38:08.662Z,4.3
2023-03-30T07:43:14.531Z,3.9
2023-03-30T07:44:31.012Z,4.2
2023-03-30T07:45:47.487Z,3.7
2023-03-30T07:48:20.445Z,4.4
2023-03-30T07:49:36.210Z,4.4
2023-03-30T07:52:09.210Z,4.4
2023-03-30T07:53:25.648Z,3.8
2023-03-30T07:54:42.115Z,4.5
2023-03-30T07:55:58.651Z,3.9
2023-03-30T07:57:15.088Z,4.5
2023-03-30T07:58:31.558Z,13
2023-03-30T07:59:48.052Z,4.2
2023-03-30T08:01:04.521Z,4.5
2023-03-30T08:02:21.008Z,4.7
2023-03-30T08:04:53.956Z,4.5
2023-03-30T08:06:09.715Z,4.2
2023-03-30T08:07:26.185Z,4.7
2023-03-30T08:08:42.681Z,4.1
2023-03-30T08:09:59.161Z,4.6
2023-03-30T08:11:15.628Z,3.5
2023-03-30T08:12:32.109Z,4.3
2023-03-30T08:15:05.066Z,4.3
2023-03-30T08:16:21.550Z,4
2023-03-30T08:17:38.030Z,4.3
2023-03-30T08:20:10.995Z,3.9
2023-03-30T08:21:27.464Z,3.8
2023-03-30T08:23:59.000Z,4.2
2023-03-30T08:25:16.180Z,3.6
2023-03-30T08:26:32.661Z,3.1
2023-03-30T08:29:05.623Z,4.1
2023-03-30T08:30:22.104Z,4
2023-03-30T08:31:38.579Z,4.1
2023-03-30T08:32:55.057Z,3.7
2023-03-30T08:35:28.020Z,3.4
2023-03-30T08:36:44.494Z,3.4
2023-03-30T08:39:17.464Z,3.5
2023-03-30T08:40:33.210Z,4
2023-03-30T08:41:49.695Z,4.2
2023-03-30T08:44:22.651Z,3.3
2023-03-30T08:45:39.129Z,3.5
2023-03-30T08:46:55.618Z,3.6
2023-03-30T08:48:12.093Z,3.4
2023-03-30T08:49:28.568Z,3.3
2023-03-30T08:50:45.050Z,3.6
2023-03-30T08:52:01.533Z,3.1
2023-03-30T08:53:18.017Z,3.2
2023-03-30T08:54:34.496Z,2.7
2023-03-30T08:55:50.962Z,3
2023-03-30T08:57:06.711Z,3.2
2023-03-30T08:58:23.195Z,3.1
2023-03-30T08:59:39.670Z,2.9
2023-03-30T09:00:56.161Z,2.8
2023-03-30T09:02:12.641Z,3
2023-03-30T09:03:29.110Z,2.9
2023-03-30T09:04:45.588Z,2.8
2023-03-30T09:06:01.423Z,2.8
2023-03-30T09:07:17.169Z,3
2023-03-30T09:08:33.704Z,2.9
2023-03-30T09:09:50.135Z,2.5
2023-03-30T09:11:06.614Z,3
2023-03-30T09:12:23.101Z,2.9
2023-03-30T09:13:38.884Z,2.8
2023-03-30T09:14:55.370Z,2.6
2023-03-30T09:16:11.835Z,2.6
2023-03-30T09:17:28.316Z,3.1
2023-03-30T09:18:44.805Z,2.6
2023-03-30T09:20:00.636Z,2.9
2023-03-30T09:21:16.373Z,2.7
2023-03-30T09:22:32.864Z,2.6
2023-03-30T09:23:49.348Z,2.8
2023-03-30T09:25:05.827Z,2.6
2023-03-30T09:26:22.307Z,2.7
2023-03-30T09:27:38.776Z,3.1
2023-03-30T09:28:55.256Z,2.7
2023-03-30T09:30:11.745Z,2.8
2023-03-30T09:31:28.220Z,3
2023-03-30T09:34:01.185Z,2.7
2023-03-30T09:35:17.651Z,3.1
2023-03-30T09:37:50.672Z,2.8
2023-03-30T09:40:22.924Z,3.2
2023-03-30T09:42:55.238Z,3.5
2023-03-30T09:46:44.687Z,2.8
2023-03-30T09:48:00.522Z,2.8
2023-03-30T09:49:16.266Z,3.2
2023-03-30T09:51:49.226Z,3.2
2023-03-30T09:53:05.699Z,2.6
2023-03-30T09:55:38.660Z,2.5
2023-03-30T09:56:55.136Z,2.8
2023-03-30T09:59:28.092Z,3.1
2023-03-30T10:00:44.578Z,3.2
2023-03-30T10:02:01.071Z,3
2023-03-30T10:03:17.538Z,3
2023-03-30T10:04:34.027Z,3.3
2023-03-30T10:05:49.855Z,2.8
2023-03-30T10:07:06.338Z,3.2
2023-03-30T10:08:22.082Z,2.4
2023-03-30T10:09:38.569Z,2.6
2023-03-30T10:10:55.045Z,3
2023-03-30T10:12:11.512Z,2.6
2023-03-30T10:13:27.994Z,2.7
2023-03-30T10:14:44.474Z,3.3
2023-03-30T10:16:00.959Z,2.9
2023-03-30T10:18:33.910Z,2.5
2023-03-30T10:21:06.890Z,2.7
2023-03-30T10:23:39.843Z,3
2023-03-30T10:24:55.586Z,2.9
2023-03-30T10:28:45.019Z,2.8
2023-03-30T10:30:01.501Z,2.8
2023-03-30T10:32:34.461Z,2.8
2023-03-30T10:36:23.902Z,2.6
2023-03-30T10:37:40.385Z,2.7
2023-03-30T10:38:56.869Z,2.9
2023-03-30T10:41:29.830Z,2.7
2023-03-30T10:42:45.571Z,2.7
2023-03-30T10:44:02.047Z,3
2023-03-30T10:46:35.012Z,2.8
2023-03-30T10:47:51.490Z,3
2023-03-30T10:50:24.451Z,2.5
2023-03-30T10:51:40.936Z,2.1
2023-03-30T10:52:57.414Z,2.9
2023-03-30T10:55:30.386Z,2.3
2023-03-30T10:56:46.861Z,2.2
2023-03-30T11:00:36.295Z,2.5
2023-03-30T11:01:52.048Z,2.5
2023-03-30T11:03:08.518Z,2.9
2023-03-30T11:04:25.003Z,2.8
2023-03-30T11:05:41.492Z,2.4
2023-03-30T11:06:57.955Z,2.4
2023-03-30T11:08:14.450Z,2.6
2023-03-30T11:09:30.931Z,2.4
2023-03-30T11:10:47.408Z,2
2023-03-30T11:12:03.877Z,2.7
2023-03-30T11:14:36.856Z,2.7
2023-03-30T11:15:53.323Z,2.4
2023-03-30T11:17:09.814Z,2.5
2023-03-30T11:18:26.290Z,2.2
2023-03-30T11:19:42.041Z,2.8
2023-03-30T11:20:58.515Z,2.5
2023-03-30T11:23:31.484Z,2.1
2023-03-30T11:24:47.953Z,2.8
2023-03-30T11:27:20.914Z,2.5
2023-03-30T11:28:37.390Z,2.5
2023-03-30T11:29:53.872Z,2.9
2023-03-30T11:32:26.829Z,2.8
2023-03-30T11:33:43.317Z,3
2023-03-30T11:34:59.790Z,3.1
2023-03-30T11:36:16.264Z,4.1
2023-03-30T11:37:32.027Z,3.2
2023-03-30T11:40:04.983Z,3.6
2023-03-30T11:41:21.471Z,4
2023-03-30T11:42:37.936Z,4.1
2023-03-30T11:46:27.373Z,4.3
2023-03-30T11:49:00.346Z,4.2
2023-03-30T11:50:16.823Z,3.6
2023-03-30T11:51:33.296Z,4.4
2023-03-30T11:54:06.263Z,4.5
2023-03-30T11:57:55.709Z,4
2023-03-30T11:59:11.445Z,4.3
2023-03-30T12:03:00.889Z,4.2
2023-03-30T12:06:50.323Z,4.2
2023-03-30T12:08:06.814Z,3.9
2023-03-30T12:10:39.770Z,3.9
2023-03-30T12:11:56.251Z,3.9
2023-03-30T12:13:12.730Z,3.5
2023-03-30T12:14:29.207Z,4.1
2023-03-30T12:15:45.684Z,4.7
2023-03-30T12:17:01.429Z,5.3
2023-03-30T12:23:23.844Z,4.7
2023-03-30T12:27:13.279Z,5.7
2023-03-30T12:31:02.717Z,5.2
2023-03-30T12:34:52.149Z,5.6
2023-03-30T12:37:25.121Z,4.3
2023-03-30T12:41:13.828Z,4.3
2023-03-30T12:42:30.298Z,5
2023-03-30T12:43:46.778Z,4.9
2023-03-30T12:45:03.268Z,4.8
2023-03-30T12:47:36.218Z,4.4
2023-03-30T12:50:09.186Z,4.4
2023-03-30T12:51:25.655Z,4.7
2023-03-30T12:52:42.202Z,4.3
2023-03-30T12:53:58.616Z,4.7
2023-03-30T12:55:15.109Z,4.3
2023-03-30T12:56:30.849Z,4.6
2023-03-30T12:57:47.341Z,4.1
2023-03-30T12:59:03.815Z,4.3
2023-03-30T13:04:09.726Z,4
2023-03-30T13:05:26.217Z,3.6
2023-03-30T13:09:15.660Z,4
2023-03-30T13:10:32.130Z,4
2023-03-30T13:13:05.091Z,3.9
2023-03-30T13:18:11.001Z,4.3
2023-03-30T13:19:26.760Z,3.8
2023-03-30T13:20:43.240Z,3.7
2023-03-30T13:21:59.725Z,3.7
2023-03-30T13:23:16.197Z,3.9
2023-03-30T13:24:32.680Z,4.5
2023-03-30T13:27:05.636Z,4.2
2023-03-30T13:28:22.118Z,3.9
2023-03-30T13:30:55.071Z,3.5
2023-03-30T13:32:11.567Z,3.9
2023-03-30T13:33:27.353Z,3.9
2023-03-30T13:36:00.305Z,3.5
2023-03-30T13:38:33.271Z,3.9
2023-03-30T13:41:06.222Z,4
2023-03-30T13:44:55.664Z,3.4
2023-03-30T13:47:28.639Z,3.5
2023-03-30T13:48:45.118Z,3.5
2023-03-30T13:50:01.593Z,3.7
2023-03-30T13:52:33.820Z,3.1
2023-03-30T13:55:06.779Z,3
2023-03-30T13:56:23.263Z,3.1
2023-03-30T13:58:56.224Z,3.7
2023-03-30T14:00:12.693Z,3.4
2023-03-30T14:01:29.177Z,3.3
2023-03-30T14:02:45.650Z,3.7
2023-03-30T14:04:02.141Z,3.6
2023-03-30T14:05:18.629Z,3.7
2023-03-30T14:06:35.105Z,3.3
2023-03-30T14:07:50.854Z,3.4
2023-03-30T14:10:23.804Z,3.1
2023-03-30T14:11:40.296Z,3.1
2023-03-30T14:12:56.770Z,3.4
2023-03-30T14:14:13.240Z,2.9
2023-03-30T14:15:29.736Z,3.3
2023-03-30T14:16:46.211Z,2.8
2023-03-30T14:18:02.696Z,3.3
2023-03-30T14:19:19.157Z,3.4
2023-03-30T14:20:35.648Z,3
2023-03-30T14:21:52.135Z,2.9
2023-03-30T14:23:08.597Z,3.6
2023-03-30T14:24:24.352Z,3.7
2023-03-30T14:25:40.188Z,3.2
2023-03-30T14:26:55.939Z,3
2023-03-30T14:28:12.421Z,3.1
2023-03-30T14:29:28.900Z,2.8
2023-03-30T14:30:45.367Z,3.1
2023-03-30T14:32:01.849Z,3
2023-03-30T14:33:18.340Z,3.2
2023-03-30T14:34:34.817Z,3.2
2023-03-30T14:35:51.288Z,2.9
2023-03-30T14:37:07.780Z,3.2
2023-03-30T14:39:40.725Z,2.9
2023-03-30T14:42:13.689Z,3.6
2023-03-30T14:43:29.530Z,3
2023-03-30T14:44:45.270Z,3.2
2023-03-30T14:46:01.753Z,2.9
2023-03-30T14:47:18.296Z,2.8
2023-03-30T14:48:34.706Z,3.4
2023-03-30T14:49:51.199Z,2.9
2023-03-30T14:51:07.662Z,3.1
2023-03-30T14:52:24.144Z,3
2023-03-30T14:53:40.638Z,3.7
2023-03-30T14:54:57.121Z,3
2023-03-30T14:56:13.593Z,2.9
2023-03-30T14:57:29.486Z,2.8
2023-03-30T14:58:45.909Z,2.9
2023-03-30T15:00:01.646Z,2.4
2023-03-30T15:01:18.196Z,2.9
2023-03-30T15:02:34.615Z,3
2023-03-30T15:03:51.091Z,3.1
2023-03-30T15:05:07.571Z,2.7
2023-03-30T15:06:24.055Z,2.9
2023-03-30T15:07:40.524Z,3
2023-03-30T15:08:57.010Z,3.1
2023-03-30T15:10:13.483Z,3
2023-03-30T15:11:29.386Z,3.1
2023-03-30T15:12:45.062Z,2.7
2023-03-30T15:14:01.553Z,2.8
2023-03-30T15:15:18.022Z,3.1
2023-03-30T15:16:34.520Z,3.1
2023-03-30T15:17:50.986Z,2.9
2023-03-30T15:19:07.468Z,2.4
2023-03-30T15:20:23.948Z,3.1
2023-03-30T15:21:40.427Z,2.9
2023-03-30T15:22:56.919Z,2.6
2023-03-30T15:26:46.358Z,2.7
2023-03-30T15:28:02.185Z,2.8
2023-03-30T15:29:17.927Z,2.6
2023-03-30T15:30:34.410Z,2.4
2023-03-30T15:31:50.886Z,3
2023-03-30T15:33:07.374Z,2.5
2023-03-30T15:34:23.857Z,3
2023-03-30T15:35:40.332Z,2.3
2023-03-30T15:36:56.808Z,2.5
2023-03-30T15:38:13.356Z,2.6
2023-03-30T15:39:29.762Z,2.6
2023-03-30T15:40:46.260Z,2.6
2023-03-30T15:42:02.079Z,2.5
2023-03-30T15:43:17.832Z,2.4
2023-03-30T15:44:34.314Z,2.6
2023-03-30T15:45:50.791Z,2.5
2023-03-30T15:47:07.267Z,3.1
2023-03-30T15:48:23.743Z,2.7
2023-03-30T15:49:40.229Z,2.3
2023-03-30T15:50:56.704Z,2.3
2023-03-30T15:52:13.255Z,2.7
2023-03-30T15:53:29.662Z,2.4
2023-03-30T15:54:46.144Z,2.8
2023-03-30T15:56:02.621Z,2.5
2023-03-30T15:57:19.106Z,2.1
2023-03-30T15:58:35.588Z,2.5
2023-03-30T15:59:51.330Z,2.4
2023-03-30T16:01:07.812Z,2.6
2023-03-30T16:02:24.308Z,2.4
2023-03-30T16:03:40.845Z,2.3
2023-03-30T16:04:57.254Z,2.7
2023-03-30T16:06:13.735Z,2.3
2023-03-30T16:07:30.224Z,2.5
2023-03-30T16:10:03.184Z,2.3
2023-03-30T16:11:19.666Z,2.6
2023-03-30T16:12:36.140Z,2.6
2023-03-30T16:13:52.627Z,2
2023-03-30T16:15:09.101Z,2.6
2023-03-30T16:16:24.843Z,2.6
2023-03-30T16:17:41.324Z,2.6
2023-03-30T16:18:57.808Z,2.5
2023-03-30T16:20:14.277Z,2.6
2023-03-30T16:21:30.757Z,2.4
2023-03-30T16:22:47.251Z,2.4
2023-03-30T16:24:03.731Z,2.5
2023-03-30T16:25:20.208Z,2.7
2023-03-30T16:26:36.680Z,2.2
2023-03-30T16:27:53.157Z,2.3
2023-03-30T16:29:09.640Z,2.4
2023-03-30T16:30:26.127Z,2.7
2023-03-30T16:32:59.079Z,2.3
2023-03-30T16:34:14.845Z,2.3
2023-03-30T16:35:31.308Z,1.9
2023-03-30T16:36:47.795Z,2.4
2023-03-30T16:38:04.282Z,2.2
2023-03-30T16:39:20.751Z,2.4
2023-03-30T16:40:37.246Z,2.1
2023-03-30T16:43:10.196Z,2.6
2023-03-30T16:44:26.668Z,2.4
2023-03-30T16:48:16.120Z,2.4
2023-03-30T16:50:48.434Z,2.9
2023-03-30T16:52:04.250Z,2.4
2023-03-30T16:53:20.743Z,2.2
2023-03-30T16:55:52.955Z,2.1
2023-03-30T16:57:09.455Z,2.2
2023-03-30T16:59:42.394Z,2.6
2023-03-30T17:02:15.368Z,2.5
2023-03-30T17:03:31.847Z,2.5
2023-03-30T17:06:04.800Z,2.1
2023-03-30T17:07:21.284Z,2.2
2023-03-30T17:08:37.770Z,1.8
2023-03-30T17:09:54.254Z,2.2
2023-03-30T17:11:10.727Z,2.1
2023-03-30T17:12:26.554Z,1.9
2023-03-30T17:13:42.309Z,2.2
2023-03-30T17:14:58.790Z,2.1
2023-03-30T17:16:15.264Z,2.4
2023-03-30T17:17:31.752Z,2.3
2023-03-30T17:20:04.695Z,2.2
2023-03-30T17:22:37.674Z,2
2023-03-30T17:25:10.632Z,2.1
2023-03-30T17:26:27.108Z,1.6
2023-03-30T17:30:16.543Z,2
2023-03-30T17:31:32.288Z,2.1
2023-03-30T17:34:05.260Z,2
2023-03-30T17:35:21.734Z,2.2
2023-03-30T17:39:11.181Z,1.9
2023-03-30T17:43:00.618Z,2.1
2023-03-30T17:44:17.081Z,1.8
2023-03-30T17:45:33.580Z,1.7
2023-03-30T17:48:06.541Z,2.2
2023-03-30T17:49:23.022Z,1.7
2023-03-30T17:51:55.270Z,2.2
2023-03-30T17:53:11.073Z,1.8
2023-03-30T17:54:27.543Z,1.9
2023-03-30T17:57:00.519Z,1.7
2023-03-30T17:58:16.985Z,2.1
2023-03-30T17:59:33.471Z,1.9
2023-03-30T18:02:06.433Z,1.6
2023-03-30T18:03:22.901Z,2.1
2023-03-30T18:05:55.868Z,2.1
2023-03-30T18:08:28.818Z,1.9
2023-03-30T18:11:01.052Z,2
2023-03-30T18:13:34.015Z,2.1
2023-03-30T18:16:06.986Z,1.7
2023-03-30T18:17:23.457Z,1.9
2023-03-30T18:19:56.411Z,1.7
2023-03-30T18:22:29.374Z,2
2023-03-30T18:23:45.846Z,1.8
2023-03-30T18:32:41.209Z,1.7
2023-03-30T18:36:30.662Z,2.1
2023-03-30T18:37:46.414Z,1.7
2023-03-30T18:41:35.920Z,1.9
2023-03-30T18:45:25.288Z,1.7
2023-03-30T18:46:41.757Z,1.9
2023-03-30T18:49:14.731Z,2
2023-03-30T18:51:47.679Z,1.8
2023-03-30T18:54:20.641Z,2.1
2023-03-30T19:01:59.521Z,1.9
2023-03-30T19:05:48.967Z,1.8
2023-03-30T19:08:21.192Z,1.9
2023-03-30T19:16:00.077Z,1.7
2023-03-30T19:23:38.945Z,2.1
2023-03-30T19:24:54.744Z,2.1
2023-03-30T19:28:44.182Z,1.6
2023-03-30T19:32:33.638Z,1.6
2023-03-30T19:33:50.115Z,1.5
2023-03-30T19:36:23.062Z,1.5
2023-03-30T19:37:39.548Z,1.5
2023-03-30T19:41:28.983Z,1.7
2023-03-30T19:45:17.689Z,1.8
2023-03-30T19:46:34.179Z,1.7
2023-03-30T19:47:50.650Z,1.7
2023-03-30T19:50:23.647Z,2
2023-03-30T19:51:40.094Z,1.7
2023-03-30T19:54:13.052Z,1.5
2023-03-30T19:55:29.541Z,1.8
2023-03-30T20:00:35.450Z,1.6
2023-03-30T20:01:51.204Z,1.8
2023-03-30T20:05:40.638Z,1.4
2023-03-30T20:10:46.564Z,1.7
2023-03-30T20:14:36.012Z,1.7
2023-03-30T20:19:41.924Z,1.7
2023-03-30T20:23:30.645Z,1.7
2023-03-30T20:24:47.108Z,1.7
2023-03-30T20:28:36.559Z,1.7
2023-03-30T20:32:26.027Z,1.4
2023-03-30T20:33:42.485Z,1.6
2023-03-30T20:34:58.957Z,1.7
2023-03-30T20:37:31.910Z,1.7
2023-03-30T20:38:47.665Z,1.5
2023-03-30T20:41:20.656Z,1.5
2023-03-30T20:42:37.112Z,1.7
2023-03-30T20:43:53.587Z,1.4
2023-03-30T20:46:26.551Z,1.6
2023-03-30T20:48:59.511Z,1.5
2023-03-30T20:51:32.471Z,1.4
2023-03-30T20:52:48.934Z,1.6
2023-03-30T20:55:21.937Z,1.6
2023-03-30T20:56:38.390Z,1.5
2023-03-30T20:57:54.142Z,1.4
2023-03-30T20:59:10.646Z,1.5
2023-03-30T21:00:27.102Z,1.5
2023-03-30T21:01:43.564Z,1.8
2023-03-30T21:03:00.053Z,1.7
2023-03-30T21:05:33.011Z,1.7
2023-03-30T21:06:49.498Z,1.5
2023-03-30T21:08:05.963Z,1.7
2023-03-30T21:09:22.457Z,1.7
2023-03-30T21:11:55.405Z,1.4
2023-03-30T21:13:11.925Z,1.6
2023-03-30T21:14:27.642Z,1.5
2023-03-30T21:15:44.126Z,1.4
2023-03-30T21:17:00.635Z,1.8
2023-03-30T21:19:33.569Z,1.5
2023-03-30T21:20:50.044Z,1.3
2023-03-30T21:22:06.510Z,1.5
2023-03-30T21:23:23.001Z,1.3
2023-03-30T21:24:39.472Z,1.7
2023-03-30T21:28:28.920Z,1.5
2023-03-30T21:29:45.409Z,1.5
2023-03-30T21:31:01.142Z,1.5
2023-03-30T21:32:17.637Z,1.6
2023-03-30T21:34:50.596Z,2
2023-03-30T21:36:07.068Z,1.5
2023-03-30T21:37:23.540Z,1.6
2023-03-30T21:38:40.031Z,1.6
2023-03-30T21:41:12.988Z,1.6
2023-03-30T21:42:29.474Z,1.9
2023-03-30T21:43:45.952Z,1.6
2023-03-30T21:45:02.463Z,1.5
2023-03-30T21:46:18.906Z,1.7
2023-03-30T21:47:34.664Z,1.5
2023-03-30T21:50:07.617Z,1.5
2023-03-30T21:52:40.575Z,1.7
2023-03-30T21:53:57.093Z,1.5
2023-03-30T21:55:13.543Z,1.4
2023-03-30T21:57:46.495Z,1.6
2023-03-30T22:00:19.467Z,1.4
2023-03-30T22:01:35.943Z,1.6
2023-03-30T22:02:52.452Z,1.7
2023-03-30T22:05:25.382Z,1.5
2023-03-30T22:06:41.136Z,1.7
2023-03-30T22:07:57.612Z,1.4
2023-03-30T22:09:13.406Z,1.7
2023-03-30T22:10:29.872Z,1.5
2023-03-30T22:14:19.323Z,1.4
2023-03-30T22:15:35.805Z,1.6
2023-03-30T22:16:52.279Z,1.5
2023-03-30T22:18:08.752Z,1.3
2023-03-30T22:20:41.713Z,1.7
2023-03-30T22:21:58.192Z,1.7
2023-03-30T22:23:14.680Z,1.6
2023-03-30T22:24:31.154Z,1.5
2023-03-30T22:25:46.897Z,1.5
2023-03-30T22:27:03.420Z,1.8
2023-03-30T22:28:19.868Z,1.6
2023-03-30T22:29:36.353Z,1.3
2023-03-30T22:32:09.298Z,1.5
2023-03-30T22:33:25.780Z,1.6
2023-03-30T22:35:58.741Z,1.5
2023-03-30T22:37:15.228Z,1.5
2023-03-30T22:38:31.701Z,1.5
2023-03-30T22:39:48.184Z,1.3
2023-03-30T22:41:04.671Z,1.4
2023-03-30T22:43:36.894Z,1.6
2023-03-30T22:44:53.383Z,1.3
2023-03-30T22:46:09.858Z,1.3
2023-03-30T22:47:26.328Z,1.6
2023-03-30T22:51:15.773Z,1.7
2023-03-30T22:52:32.258Z,1.7
2023-03-30T22:55:05.212Z,1.3
2023-03-30T22:56:21.697Z,1.5
2023-03-30T22:57:38.170Z,1.5
2023-03-30T23:00:10.392Z,1.5
2023-03-30T23:01:26.887Z,1.3
2023-03-30T23:02:43.398Z,1.3
2023-03-30T23:03:59.847Z,1.5
2023-03-30T23:05:16.314Z,1.4
2023-03-30T23:06:32.790Z,1.2
2023-03-30T23:09:05.768Z,1.7
2023-03-30T23:10:22.236Z,1.3
2023-03-30T23:14:11.686Z,1.5
2023-03-30T23:15:27.440Z,1.4
2023-03-30T23:18:00.398Z,1.5
2023-03-30T23:19:16.873Z,1.4
2023-03-30T23:23:06.301Z,1.4
2023-03-30T23:24:22.798Z,1.5
2023-03-30T23:26:55.757Z,1.5
2023-03-30T23:29:28.713Z,1.5
2023-03-30T23:32:01.665Z,1.2
2023-03-30T23:33:17.420Z,1.4
2023-03-30T23:35:50.381Z,1.6
2023-03-30T23:37:06.856Z,1.5
2023-03-30T23:38:23.338Z,1.4
2023-03-30T23:40:56.298Z,1.4
2023-03-30T23:42:12.769Z,1.5
2023-03-30T23:43:29.296Z,1.4
2023-03-30T23:44:45.776Z,1.5
2023-03-30T23:46:02.221Z,1.3
2023-03-30T23:47:18.696Z,1.3
2023-03-30T23:52:24.612Z,1.3
2023-03-30T23:54:57.586Z,1.4
2023-03-30T23:56:13.315Z,1.4
2023-03-30T23:57:29.845Z,1.5
